createdAt,value
2022-08-17T00:00:57.209Z,100942.88
2022-08-17T00:03:31.939Z,100945.91
2022-08-17T00:06:03.333Z,100947.00
2022-08-17T00:08:31.344Z,100949.84
2022-08-17T00:10:58.355Z,100949.13
2022-08-17T00:13:32.910Z,100953.63
2022-08-17T00:16:01.599Z,100950.13
2022-08-17T00:19:06.228Z,100947.53
2022-08-17T00:21:15.683Z,100954.72
2022-08-17T00:23:50.608Z,100961.94
2022-08-17T00:26:43.732Z,100961.97
2022-08-17T00:29:04.979Z,100955.81
2022-08-17T00:31:31.302Z,100957.69
2022-08-17T00:33:57.629Z,100962.22
2022-08-17T00:36:24.160Z,100964.19
2022-08-17T00:38:51.206Z,100962.53
2022-08-17T00:41:19.463Z,100957.34
2022-08-17T00:44:07.769Z,100965.41
2022-08-17T00:46:37.113Z,100962.84
2022-08-17T00:49:03.717Z,100961.16
2022-08-17T00:51:30.010Z,100960.25
2022-08-17T00:54:25.521Z,100965.53
2022-08-17T00:56:55.087Z,100964.63
2022-08-17T00:59:22.971Z,100954.03
2022-08-17T01:01:49.899Z,100956.78
2022-08-17T01:04:18.091Z,100963.06
2022-08-17T01:06:46.866Z,100969.38
2022-08-17T01:09:13.489Z,100966.81
2022-08-17T01:11:40.557Z,100973.22
2022-08-17T01:14:08.861Z,100962.66
2022-08-17T01:16:35.708Z,100969.84
2022-08-17T01:19:06.470Z,100974.44
2022-08-17T01:21:55.582Z,100976.34
2022-08-17T01:24:22.016Z,100974.59
2022-08-17T01:26:48.559Z,100979.13
2022-08-17T01:29:15.972Z,100975.59
2022-08-17T01:31:50.145Z,100975.63
2022-08-17T01:34:17.728Z,100979.91
2022-08-17T01:36:45.942Z,100971.84
2022-08-17T01:39:18.296Z,100982.50
2022-08-17T01:41:46.425Z,100976.31
2022-08-17T01:44:14.067Z,100980.84
2022-08-17T01:46:40.409Z,100980.88
2022-08-17T01:49:08.135Z,100973.78
2022-08-17T01:51:34.598Z,100980.03
2022-08-17T01:54:05.190Z,100972.19
2022-08-17T01:56:33.188Z,100971.41
2022-08-17T01:58:59.588Z,100972.22
2022-08-17T02:01:28.067Z,100974.78
2022-08-17T02:04:00.480Z,100971.34
2022-08-17T02:06:28.910Z,100968.78
2022-08-17T02:09:02.362Z,100966.22
2022-08-17T02:11:31.035Z,100961.88
2022-08-17T02:14:03.297Z,100965.53
2022-08-17T02:16:37.668Z,100968.34
2022-08-17T02:19:06.075Z,100972.00
2022-08-17T02:21:32.515Z,100970.34
2022-08-17T02:23:59.154Z,100981.88
2022-08-17T02:26:26.251Z,100980.09
2022-08-17T02:28:53.546Z,100983.69
2022-08-17T02:31:21.215Z,100982.00
2022-08-17T02:33:47.536Z,100982.97
2022-08-17T02:36:27.528Z,100987.47
2022-08-17T02:38:53.972Z,100980.34
2022-08-17T02:41:20.380Z,100983.88
2022-08-17T02:43:46.761Z,100978.59
2022-08-17T02:46:13.129Z,100981.31
2022-08-17T02:48:39.964Z,100979.59
2022-08-17T02:51:06.302Z,100986.72
2022-08-17T02:53:35.996Z,100983.13
2022-08-17T02:56:02.725Z,100977.78
2022-08-17T02:58:34.580Z,100976.03
2022-08-17T03:01:03.239Z,100970.69
2022-08-17T03:03:29.603Z,100971.66
2022-08-17T03:05:55.925Z,100966.44
2022-08-17T03:08:23.224Z,100969.25
2022-08-17T03:10:50.371Z,100979.03
2022-08-17T03:13:16.884Z,100976.47
2022-08-17T03:15:45.170Z,100983.63
2022-08-17T03:18:24.234Z,100981.09
2022-08-17T03:20:52.770Z,100990.09
2022-08-17T03:23:19.140Z,100991.16
2022-08-17T03:25:53.147Z,100993.00
2022-08-17T03:28:20.386Z,100996.56
2022-08-17T03:30:46.749Z,100998.44
2022-08-17T03:33:13.118Z,100999.34
2022-08-17T03:35:40.501Z,100994.06
2022-08-17T03:38:08.010Z,101002.94
2022-08-17T03:40:57.765Z,100995.94
2022-08-17T03:43:21.795Z,100993.28
2022-08-17T03:46:24.014Z,100992.38
2022-08-17T03:49:11.833Z,100996.00
2022-08-17T03:51:56.757Z,100993.34
2022-08-17T03:54:41.541Z,100995.19
2022-08-17T03:57:08.879Z,100998.75
2022-08-17T03:59:35.980Z,101000.56
2022-08-17T04:02:15.626Z,100997.88
2022-08-17T04:04:41.941Z,101004.03
2022-08-17T04:07:08.537Z,101004.97
2022-08-17T04:09:34.929Z,100997.88
2022-08-17T04:12:02.488Z,100991.66
2022-08-17T04:14:36.145Z,100995.22
2022-08-17T04:17:18.667Z,100998.75
2022-08-17T04:19:46.449Z,101001.41
2022-08-17T04:22:30.333Z,101009.41
2022-08-17T04:24:59.434Z,101013.00
2022-08-17T04:27:25.752Z,101015.66
2022-08-17T04:29:55.137Z,101016.53
2022-08-17T04:33:02.896Z,101014.75
2022-08-17T04:35:10.157Z,101014.69
2022-08-17T04:37:37.713Z,101024.41
2022-08-17T04:40:27.580Z,101026.09
2022-08-17T04:43:01.283Z,101018.00
2022-08-17T04:45:32.030Z,101025.91
2022-08-17T04:47:59.051Z,101012.50
2022-08-17T04:50:25.552Z,101030.97
2022-08-17T04:52:51.890Z,101026.34
2022-08-17T04:55:18.295Z,101031.59
2022-08-17T04:57:45.255Z,101019.88
2022-08-17T05:00:11.865Z,101028.53
2022-08-17T05:02:49.870Z,101033.69
2022-08-17T05:05:20.926Z,101034.50
2022-08-17T05:07:47.395Z,101041.50
2022-08-17T05:10:13.765Z,101049.25
2022-08-17T05:12:40.095Z,101047.47
2022-08-17T05:15:10.530Z,101047.44
2022-08-17T05:17:36.949Z,101043.69
2022-08-17T05:20:03.706Z,101040.00
2022-08-17T05:22:30.017Z,101043.34
2022-08-17T05:24:56.353Z,101040.56
2022-08-17T05:27:24.294Z,101043.19
2022-08-17T05:29:55.630Z,101036.81
2022-08-17T05:32:38.256Z,101040.31
2022-08-17T05:35:06.818Z,101030.41
2022-08-17T05:37:33.297Z,101034.72
2022-08-17T05:39:59.658Z,101034.59
2022-08-17T05:42:26.072Z,101029.19
2022-08-17T05:44:52.375Z,101034.38
2022-08-17T05:47:18.750Z,101029.78
2022-08-17T05:49:45.085Z,101038.41
2022-08-17T05:52:23.499Z,101033.66
2022-08-17T05:55:07.809Z,101049.47
2022-08-17T05:57:54.206Z,101048.31
2022-08-17T06:00:30.049Z,101039.94
2022-08-17T06:03:22.290Z,101047.50
2022-08-17T06:05:54.006Z,101049.59
2022-08-17T06:08:29.478Z,101054.56
2022-08-17T06:11:05.016Z,101057.00
2022-08-17T06:13:31.721Z,101065.47
2022-08-17T06:16:31.118Z,101058.75
2022-08-17T06:18:59.696Z,101053.97
2022-08-17T06:21:30.472Z,101056.88
2022-08-17T06:24:21.677Z,101068.22
2022-08-17T06:26:48.149Z,101066.91
2022-08-17T06:29:23.684Z,101062.72
2022-08-17T06:31:50.956Z,101067.22
2022-08-17T06:34:17.280Z,101067.16
2022-08-17T06:37:03.715Z,101070.78
2022-08-17T06:40:00.390Z,101063.72
2022-08-17T06:42:54.943Z,101061.66
2022-08-17T06:45:34.398Z,101071.22
2022-08-17T06:48:00.729Z,101071.84
2022-08-17T06:50:35.888Z,101063.34
2022-08-17T06:53:20.985Z,101068.09
2022-08-17T06:56:02.277Z,101064.91
2022-08-17T06:58:31.282Z,101064.34
2022-08-17T07:01:01.619Z,101067.16
2022-08-17T07:03:30.794Z,101069.50
2022-08-17T07:05:58.935Z,101078.19
2022-08-17T07:08:35.323Z,101074.19
2022-08-17T07:11:12.991Z,101083.84
2022-08-17T07:13:39.336Z,101082.19
2022-08-17T07:16:25.966Z,101090.72
2022-08-17T07:18:53.223Z,101090.97
2022-08-17T07:21:31.740Z,101101.84
2022-08-17T07:24:29.384Z,101099.50
2022-08-17T07:27:11.985Z,101095.25
2022-08-17T07:29:43.921Z,101103.19
2022-08-17T07:32:11.297Z,101097.59
2022-08-17T07:34:56.508Z,101099.66
2022-08-17T07:37:22.809Z,101102.63
2022-08-17T07:40:15.550Z,101102.13
2022-08-17T07:42:35.443Z,101101.69
2022-08-17T07:45:22.819Z,101101.91
2022-08-17T07:48:09.119Z,101107.28
2022-08-17T07:50:35.523Z,101116.97
2022-08-17T07:53:16.831Z,101113.06
2022-08-17T07:55:45.191Z,101111.44
2022-08-17T07:58:19.943Z,101114.81
2022-08-17T08:01:02.043Z,101109.75
2022-08-17T08:03:31.944Z,101106.56
2022-08-17T08:06:02.484Z,101107.38
2022-08-17T08:08:32.727Z,101096.59
2022-08-17T08:10:59.171Z,101112.09
2022-08-17T08:13:28.700Z,101113.91
2022-08-17T08:16:13.853Z,101111.97
2022-08-17T08:18:54.640Z,101116.22
2022-08-17T08:21:24.301Z,101114.94
2022-08-17T08:24:09.593Z,101111.31
2022-08-17T08:26:46.380Z,101110.69
2022-08-17T08:29:31.577Z,101109.66
2022-08-17T08:32:17.844Z,101110.66
2022-08-17T08:35:02.608Z,101112.44
2022-08-17T08:37:42.908Z,101113.28
2022-08-17T08:40:25.025Z,101115.28
2022-08-17T08:42:57.463Z,101117.41
2022-08-17T08:45:43.377Z,101119.94
2022-08-17T08:48:53.305Z,101113.13
2022-08-17T08:51:33.216Z,101123.34
2022-08-17T08:54:04.255Z,101120.66
2022-08-17T08:56:37.116Z,101122.66
2022-08-17T08:59:20.226Z,101123.63
2022-08-17T09:02:05.394Z,101131.47
2022-08-17T09:05:02.739Z,101125.63
2022-08-17T09:07:34.928Z,101126.34
2022-08-17T09:10:19.602Z,101114.22
2022-08-17T09:12:56.279Z,101120.59
2022-08-17T09:15:32.041Z,101121.31
2022-08-17T09:19:02.468Z,101129.16
2022-08-17T09:21:01.274Z,101122.75
2022-08-17T09:23:33.299Z,101127.09
2022-08-17T09:26:22.901Z,101137.81
2022-08-17T09:28:50.673Z,101133.78
2022-08-17T09:31:20.236Z,101136.19
2022-08-17T09:33:48.569Z,101136.47
2022-08-17T09:36:18.680Z,101135.06
2022-08-17T09:38:49.710Z,101132.84
2022-08-17T09:41:33.924Z,101129.47
2022-08-17T09:44:23.069Z,101130.94
2022-08-17T09:46:55.563Z,101130.72
2022-08-17T09:49:54.520Z,101126.09
2022-08-17T09:52:23.205Z,101121.00
2022-08-17T09:54:51.402Z,101124.78
2022-08-17T09:57:30.409Z,101121.13
2022-08-17T09:59:57.559Z,101118.78
2022-08-17T10:02:44.307Z,101116.38
2022-08-17T10:05:17.983Z,101117.59
2022-08-17T10:08:02.760Z,101119.28
2022-08-17T10:10:36.915Z,101119.81
2022-08-17T10:13:09.770Z,101122.16
2022-08-17T10:15:42.793Z,101115.28
2022-08-17T10:18:33.116Z,101117.91
2022-08-17T10:21:24.990Z,101114.66
2022-08-17T10:24:13.234Z,101111.91
2022-08-17T10:26:46.211Z,101116.88
2022-08-17T10:29:28.967Z,101112.88
2022-08-17T10:32:00.542Z,101115.31
2022-08-17T10:34:41.126Z,101107.06
2022-08-17T10:37:21.953Z,101098.91
2022-08-17T10:40:00.455Z,101098.81
2022-08-17T10:42:45.725Z,101099.56
2022-08-17T10:45:21.109Z,101099.63
2022-08-17T10:48:06.141Z,101101.72
2022-08-17T10:50:46.200Z,101106.72
2022-08-17T10:53:32.532Z,101099.09
2022-08-17T10:56:14.231Z,101095.88
2022-08-17T10:59:00.315Z,101089.53
2022-08-17T11:01:37.947Z,101094.22
2022-08-17T11:04:04.320Z,101095.28
2022-08-17T11:06:37.187Z,101096.69
2022-08-17T11:09:06.333Z,101101.19
2022-08-17T11:11:51.462Z,101095.22
2022-08-17T11:14:53.395Z,101098.06
2022-08-17T11:17:30.039Z,101095.13
2022-08-17T11:20:02.304Z,101093.88
2022-08-17T11:22:33.325Z,101091.28
2022-08-17T11:25:13.578Z,101083.94
2022-08-17T11:27:40.254Z,101086.22
2022-08-17T11:30:32.643Z,101082.72
2022-08-17T11:33:00.161Z,101085.19
2022-08-17T11:35:47.099Z,101084.56
2022-08-17T11:38:29.439Z,101092.25
2022-08-17T11:41:14.767Z,101082.13
2022-08-17T11:43:46.975Z,101085.66
2022-08-17T11:47:07.266Z,101073.56
2022-08-17T11:49:55.083Z,101072.19
2022-08-17T11:52:39.601Z,101078.88
2022-08-17T11:55:33.857Z,101086.28
2022-08-17T11:58:01.397Z,101085.84
2022-08-17T12:00:46.811Z,101086.03
2022-08-17T12:03:23.496Z,101089.25
2022-08-17T12:05:53.424Z,101088.03
2022-08-17T12:08:21.484Z,101075.81
2022-08-17T12:11:08.054Z,101066.13
2022-08-17T12:13:39.905Z,101064.03
2022-08-17T12:16:07.198Z,101069.97
2022-08-17T12:18:37.357Z,101072.22
2022-08-17T12:21:06.310Z,101061.78
2022-08-17T12:23:51.582Z,101073.06
2022-08-17T12:26:20.808Z,101071.41
2022-08-17T12:28:48.573Z,101070.34
2022-08-17T12:31:21.494Z,101071.06
2022-08-17T12:33:51.599Z,101071.91
2022-08-17T12:36:24.789Z,101071.03
2022-08-17T12:38:51.260Z,101071.56
2022-08-17T12:41:29.312Z,101061.53
2022-08-17T12:44:03.780Z,101065.47
2022-08-17T12:46:44.679Z,101067.50
2022-08-17T12:49:13.875Z,101069.09
2022-08-17T12:51:44.511Z,101076.19
2022-08-17T12:54:21.499Z,101075.13
2022-08-17T12:56:47.884Z,101079.94
2022-08-17T12:59:14.551Z,101067.66
2022-08-17T13:01:56.242Z,101072.38
2022-08-17T13:04:24.128Z,101071.25
2022-08-17T13:06:59.889Z,101071.81
2022-08-17T13:09:40.524Z,101076.69
2022-08-17T13:12:07.771Z,101071.53
2022-08-17T13:14:35.088Z,101066.94
2022-08-17T13:17:02.124Z,101072.84
2022-08-17T13:19:41.001Z,101063.41
2022-08-17T13:22:10.304Z,101076.41
2022-08-17T13:24:37.836Z,101072.09
2022-08-17T13:27:10.390Z,101065.66
2022-08-17T13:29:38.559Z,101075.44
2022-08-17T13:32:11.545Z,101075.53
2022-08-17T13:35:11.526Z,101079.91
2022-08-17T13:37:35.169Z,101072.63
2022-08-17T13:40:04.647Z,101074.88
2022-08-17T13:42:33.044Z,101068.72
2022-08-17T13:45:00.136Z,101071.16
2022-08-17T13:47:26.877Z,101071.94
2022-08-17T13:49:53.551Z,101072.88
2022-08-17T13:52:39.499Z,101069.72
2022-08-17T13:55:16.685Z,101067.34
2022-08-17T13:57:47.906Z,101075.13
2022-08-17T14:00:30.449Z,101058.56
2022-08-17T14:02:57.985Z,101064.97
2022-08-17T14:05:24.911Z,101065.00
2022-08-17T14:07:59.080Z,101062.22
2022-08-17T14:10:25.883Z,101063.47
2022-08-17T14:12:52.821Z,101063.38
2022-08-17T14:15:21.108Z,101070.88
2022-08-17T14:17:49.117Z,101059.19
2022-08-17T14:20:16.557Z,101061.03
2022-08-17T14:22:44.497Z,101062.00
2022-08-17T14:25:12.244Z,101065.97
2022-08-17T14:27:43.268Z,101065.47
2022-08-17T14:30:20.714Z,101064.72
2022-08-17T14:32:51.763Z,101064.16
2022-08-17T14:35:18.907Z,101054.66
2022-08-17T14:37:45.785Z,101064.50
2022-08-17T14:40:13.044Z,101063.44
2022-08-17T14:42:40.498Z,101062.78
2022-08-17T14:45:27.391Z,101061.91
2022-08-17T14:47:55.241Z,101059.22
2022-08-17T14:50:22.183Z,101056.97
2022-08-17T14:52:49.082Z,101050.09
2022-08-17T14:55:18.181Z,101047.00
2022-08-17T14:57:44.715Z,101051.06
2022-08-17T15:00:11.458Z,101041.41
2022-08-17T15:02:45.805Z,101037.06
2022-08-17T15:05:13.892Z,101033.00
2022-08-17T15:07:40.438Z,101033.09
2022-08-17T15:10:11.238Z,101038.59
2022-08-17T15:12:37.744Z,101025.34
2022-08-17T15:15:05.437Z,101032.31
2022-08-17T15:17:44.446Z,101019.25
2022-08-17T15:20:15.153Z,101025.47
2022-08-17T15:22:42.069Z,101024.31
2022-08-17T15:25:08.952Z,101026.72
2022-08-17T15:27:35.383Z,101018.19
2022-08-17T15:30:02.218Z,101013.94
2022-08-17T15:32:30.929Z,101013.19
2022-08-17T15:34:58.614Z,101018.00
2022-08-17T15:37:25.345Z,101012.50
2022-08-17T15:39:51.919Z,101012.69
2022-08-17T15:42:18.935Z,101014.03
2022-08-17T15:44:45.751Z,101015.13
2022-08-17T15:47:12.806Z,101013.16
2022-08-17T15:49:40.429Z,101001.94
2022-08-17T15:52:20.686Z,101000.47
2022-08-17T15:54:50.977Z,101009.03
2022-08-17T15:57:17.744Z,101016.97
2022-08-17T15:59:44.483Z,101010.00
2022-08-17T16:03:01.027Z,101012.03
2022-08-17T16:05:10.040Z,101017.38
2022-08-17T16:07:37.162Z,101022.13
2022-08-17T16:10:06.279Z,101015.91
2022-08-17T16:12:33.910Z,101018.44
2022-08-17T16:15:00.820Z,101013.13
2022-08-17T16:17:40.192Z,101019.38
2022-08-17T16:20:08.148Z,101005.41
2022-08-17T16:22:36.078Z,101001.56
2022-08-17T16:25:04.320Z,101001.41
2022-08-17T16:27:30.772Z,100999.22
2022-08-17T16:29:57.382Z,101006.06
2022-08-17T16:32:31.692Z,101003.78
2022-08-17T16:35:06.564Z,100998.59
2022-08-17T16:37:34.235Z,100990.91
2022-08-17T16:40:01.456Z,100988.28
2022-08-17T16:42:30.216Z,100990.16
2022-08-17T16:45:00.937Z,100993.47
2022-08-17T16:47:27.271Z,100991.97
2022-08-17T16:49:53.707Z,100995.72
2022-08-17T16:52:32.670Z,100993.97
2022-08-17T16:55:00.642Z,100995.44
2022-08-17T16:57:27.729Z,100995.91
2022-08-17T16:59:54.312Z,100991.78
2022-08-17T17:02:31.799Z,100989.91
2022-08-17T17:04:58.632Z,100990.59
2022-08-17T17:07:34.326Z,100984.91
2022-08-17T17:10:07.504Z,100992.53
2022-08-17T17:13:00.928Z,100992.97
2022-08-17T17:15:25.797Z,100986.22
2022-08-17T17:17:58.125Z,100988.31
2022-08-17T17:20:32.919Z,100986.50
2022-08-17T17:23:08.963Z,100971.25
2022-08-17T17:25:40.631Z,100978.50
2022-08-17T17:28:18.034Z,100978.22
2022-08-17T17:30:51.790Z,100981.63
2022-08-17T17:33:21.170Z,100978.06
2022-08-17T17:35:53.467Z,100977.97
2022-08-17T17:38:22.844Z,100985.38
2022-08-17T17:40:51.176Z,100983.44
2022-08-17T17:43:37.667Z,100986.59
2022-08-17T17:46:27.652Z,100978.72
2022-08-17T17:48:56.195Z,100975.66
2022-08-17T17:52:06.606Z,100969.78
2022-08-17T17:54:08.811Z,100975.47
2022-08-17T17:56:46.005Z,100982.03
2022-08-17T17:59:20.989Z,100984.91
2022-08-17T18:02:05.869Z,100986.16
2022-08-17T18:04:36.593Z,100979.38
2022-08-17T18:07:16.374Z,100995.75
2022-08-17T18:10:02.626Z,101005.97
2022-08-17T18:12:54.139Z,100999.25
2022-08-17T18:15:29.164Z,101011.22
2022-08-17T18:18:02.149Z,101008.66
2022-08-17T18:20:32.503Z,101011.44
2022-08-17T18:23:13.137Z,101003.75
2022-08-17T18:25:39.536Z,101020.06
2022-08-17T18:28:08.555Z,101019.28
2022-08-17T18:30:34.994Z,101020.38
2022-08-17T18:33:23.123Z,101024.88
2022-08-17T18:35:58.491Z,101016.88
2022-08-17T18:38:28.148Z,101029.63
2022-08-17T18:41:02.616Z,101023.50
2022-08-17T18:43:44.161Z,101013.69
2022-08-17T18:46:28.293Z,100999.56
2022-08-17T18:49:07.780Z,100989.09
2022-08-17T18:51:41.864Z,100987.34
2022-08-17T18:54:18.740Z,100984.72
2022-08-17T18:56:49.904Z,100988.44
2022-08-17T18:59:21.532Z,101001.91
2022-08-17T19:02:01.903Z,101007.38
2022-08-17T19:04:35.155Z,101007.28
2022-08-17T19:07:03.265Z,101019.09
2022-08-17T19:09:32.615Z,101025.50
2022-08-17T19:12:00.432Z,101023.91
2022-08-17T19:14:27.492Z,101024.84
2022-08-17T19:16:57.269Z,101020.44
2022-08-17T19:19:28.890Z,101023.22
2022-08-17T19:22:02.783Z,101025.09
2022-08-17T19:24:31.239Z,101022.41
2022-08-17T19:27:06.382Z,101010.78
2022-08-17T19:29:44.220Z,101009.91
2022-08-17T19:32:12.333Z,101013.41
2022-08-17T19:34:39.388Z,101009.84
2022-08-17T19:37:09.524Z,101005.41
2022-08-17T19:39:40.306Z,101001.91
2022-08-17T19:42:13.027Z,101003.63
2022-08-17T19:45:00.430Z,101003.63
2022-08-17T19:47:57.178Z,101006.13
2022-08-17T19:50:41.318Z,101004.31
2022-08-17T19:53:20.075Z,100999.84
2022-08-17T19:55:54.143Z,100997.25
2022-08-17T19:58:23.369Z,100990.19
2022-08-17T20:00:51.279Z,100990.19
2022-08-17T20:03:34.713Z,100991.78
2022-08-17T20:06:13.024Z,100995.28
2022-08-17T20:08:52.314Z,100994.63
2022-08-17T20:11:23.253Z,101006.56
2022-08-17T20:13:58.496Z,101058.22
2022-08-17T20:16:24.949Z,101118.38
2022-08-17T20:19:03.503Z,101126.88
2022-08-17T20:21:38.790Z,101140.41
2022-08-17T20:24:19.834Z,101174.88
2022-08-17T20:26:55.213Z,101219.59
2022-08-17T20:29:45.012Z,101254.47
2022-08-17T20:32:21.491Z,101260.47
2022-08-17T20:34:48.152Z,101284.31
2022-08-17T20:37:14.538Z,101292.50
2022-08-17T20:39:43.787Z,101288.28
2022-08-17T20:42:22.347Z,101261.44
2022-08-17T20:44:50.621Z,101241.75
2022-08-17T20:47:16.913Z,101234.56
2022-08-17T20:49:44.483Z,101224.81
2022-08-17T20:52:16.631Z,101206.81
2022-08-17T20:54:53.975Z,101195.19
2022-08-17T20:57:32.490Z,101183.69
2022-08-17T20:59:59.314Z,101181.91
2022-08-17T21:02:26.983Z,101169.31
2022-08-17T21:04:54.328Z,101161.38
2022-08-17T21:07:29.489Z,101165.97
2022-08-17T21:10:28.207Z,101149.09
2022-08-17T21:13:23.495Z,101141.19
2022-08-17T21:16:00.349Z,101129.75
2022-08-17T21:18:32.522Z,101128.97
2022-08-17T21:21:17.880Z,101123.59
2022-08-17T21:23:46.919Z,101123.50
2022-08-17T21:26:13.267Z,101122.69
2022-08-17T21:28:59.997Z,101112.06
2022-08-17T21:31:34.482Z,101097.13
2022-08-17T21:34:16.209Z,101086.63
2022-08-17T21:36:43.478Z,101080.53
2022-08-17T21:39:11.284Z,101074.38
2022-08-17T21:41:52.805Z,101072.66
2022-08-17T21:44:27.846Z,101073.56
2022-08-17T21:47:11.305Z,101063.75
2022-08-17T21:49:37.964Z,101061.13
2022-08-17T21:52:05.516Z,101069.13
2022-08-17T21:54:36.886Z,101073.59
2022-08-17T21:57:05.604Z,101086.16
2022-08-17T21:59:34.586Z,101092.50
2022-08-17T22:02:06.058Z,101100.53
2022-08-17T22:04:36.649Z,101100.63
2022-08-17T22:07:04.410Z,101102.38
2022-08-17T22:09:44.958Z,101085.50
2022-08-17T22:12:19.246Z,101080.28
2022-08-17T22:15:00.522Z,101070.53
2022-08-17T22:17:35.727Z,101059.97
2022-08-17T22:20:02.029Z,101062.69
2022-08-17T22:23:15.705Z,101053.88
2022-08-17T22:25:57.461Z,101040.03
2022-08-17T22:28:42.420Z,101033.03
2022-08-17T22:31:10.554Z,101040.91
2022-08-17T22:33:40.880Z,101049.69
2022-08-17T22:36:11.962Z,101048.63
2022-08-17T22:38:40.594Z,101058.44
2022-08-17T22:41:27.817Z,101068.34
2022-08-17T22:43:57.347Z,101097.59
2022-08-17T22:46:24.237Z,101086.84
2022-08-17T22:48:53.734Z,101075.41
2022-08-17T22:51:21.878Z,101094.06
2022-08-17T22:54:08.559Z,101085.19
2022-08-17T22:56:53.284Z,101062.16
2022-08-17T22:59:33.521Z,101056.75
2022-08-17T23:02:14.213Z,101064.81
2022-08-17T23:04:43.435Z,101072.75
2022-08-17T23:07:09.957Z,101065.50
2022-08-17T23:09:36.750Z,101064.53
2022-08-17T23:12:06.289Z,101050.19
2022-08-17T23:14:36.444Z,101042.97
2022-08-17T23:17:03.222Z,101033.94
2022-08-17T23:19:31.593Z,101040.91
2022-08-17T23:21:58.466Z,101025.66
2022-08-17T23:24:29.081Z,101035.34
2022-08-17T23:26:57.292Z,101038.69
2022-08-17T23:29:24.403Z,101034.22
2022-08-17T23:31:51.174Z,101027.88
2022-08-17T23:34:18.469Z,101020.66
2022-08-17T23:36:50.577Z,101022.38
2022-08-17T23:39:24.415Z,101016.97
2022-08-17T23:41:53.852Z,101019.50
2022-08-17T23:44:23.333Z,101014.09
2022-08-17T23:46:53.330Z,101005.09
2022-08-17T23:49:20.137Z,101003.31
2022-08-17T23:51:47.695Z,101006.88
2022-08-17T23:54:13.990Z,101006.91
2022-08-17T23:56:46.497Z,101008.75
2022-08-17T23:59:13.901Z,101007.94
